Time;durP1;ratioP1;P1;durP2;ratioP2;P2;SDS_P1;SDS_P2;PMS_P1;PMS_P2;Temp;Humidity;BMP_temperature;BMP_pressure;BME280_temperature;BME280_humidity;BME280_pressure;Samples;Min_cycle;Max_cycle;Signal;HPM_P1;HPM_P2
2023/09/22 00:01:50;;;;;;;;;;;13.80;99.90;;;;;;7320945;19;9215;-77
2023/09/22 00:04:19;;;;;;;;;;;13.80;99.90;;;;;;7314165;19;9214;-76
2023/09/22 00:06:51;;;;;;;;;;;13.70;99.90;;;;;;7320700;19;9229;-76
2023/09/22 00:09:40;;;;;;;;;;;13.70;99.90;;;;;;7316481;19;9168;-76
2023/09/22 00:12:09;;;;;;;;;;;13.70;99.90;;;;;;7323069;19;9485;-76
2023/09/22 00:15:00;;;;;;;;;;;13.80;99.90;;;;;;7324558;19;9554;-76
2023/09/22 00:17:49;;;;;;;;;;;13.80;99.90;;;;;;7325880;19;9624;-76
2023/09/22 00:20:20;;;;;;;;;;;13.80;99.90;;;;;;7326118;19;9191;-76
2023/09/22 00:22:52;;;;;;;;;;;13.80;99.90;;;;;;7326879;19;9074;-76
2023/09/22 00:25:22;;;;;;;;;;;13.70;99.90;;;;;;7323149;19;10412;-76
2023/09/22 00:27:51;;;;;;;;;;;13.80;99.90;;;;;;7326701;19;9252;-76
2023/09/22 00:30:40;;;;;;;;;;;13.80;99.90;;;;;;7324085;19;9314;-76
2023/09/22 00:33:09;;;;;;;;;;;13.80;99.90;;;;;;7323629;19;9203;-76
2023/09/22 00:35:38;;;;;;;;;;;13.80;99.90;;;;;;7325805;19;8993;-76
2023/09/22 00:38:10;;;;;;;;;;;13.80;99.90;;;;;;7325979;19;9347;-76
2023/09/22 00:40:59;;;;;;;;;;;13.80;99.90;;;;;;7324747;19;9230;-76
2023/09/22 00:43:29;;;;;;;;;;;13.80;99.90;;;;;;7326368;19;9469;-76
2023/09/22 00:45:58;;;;;;;;;;;13.80;99.90;;;;;;7324581;19;9280;-77
2023/09/22 00:48:48;;;;;;;;;;;13.80;99.90;;;;;;7323025;19;10166;-76
2023/09/22 00:51:19;;;;;;;;;;;13.80;99.90;;;;;;7326510;19;9579;-76
2023/09/22 00:53:53;;;;;;;;;;;13.90;99.90;;;;;;7324573;19;9420;-77
2023/09/22 00:56:24;;;;;;;;;;;13.90;99.90;;;;;;7325843;19;9115;-77
2023/09/22 00:59:13;;;;;;;;;;;13.90;99.90;;;;;;7323675;19;9229;-76
2023/09/22 01:01:43;;;;;;;;;;;13.90;99.90;;;;;;7324944;19;9517;-75
2023/09/22 01:04:31;;;;;;;;;;;13.90;99.90;;;;;;7321969;19;9308;-76
2023/09/22 01:07:20;;;;;;;;;;;13.90;99.90;;;;;;7324662;19;9181;-76
2023/09/22 01:09:52;;;;;;;;;;;14.00;99.90;;;;;;7325307;19;8944;-77
2023/09/22 01:12:21;;;;;;;;;;;14.00;99.90;;;;;;7324745;19;10154;-76
2023/09/22 01:14:50;;;;;;;;;;;14.00;99.90;;;;;;7324885;19;9595;-76
2023/09/22 01:17:19;;;;;;;;;;;14.00;99.90;;;;;;7324497;19;9349;-76
2023/09/22 01:20:10;;;;;;;;;;;14.10;99.90;;;;;;7321762;19;10189;-76
2023/09/22 01:22:42;;;;;;;;;;;14.10;99.90;;;;;;7324833;19;9346;-76
2023/09/22 01:25:11;;;;;;;;;;;14.10;99.90;;;;;;7325068;19;9464;-76
2023/09/22 01:28:00;;;;;;;;;;;14.10;99.90;;;;;;7322474;19;9244;-77
2023/09/22 01:30:32;;;;;;;;;;;14.10;99.90;;;;;;7324583;19;9462;-76
2023/09/22 01:33:21;;;;;;;;;;;14.10;99.90;;;;;;7320798;19;9266;-76
2023/09/22 01:35:50;;;;;;;;;;;14.20;99.90;;;;;;7322801;19;8983;-76
2023/09/22 01:38:41;;;;;;;;;;;14.30;99.90;;;;;;7321997;19;10115;-76
2023/09/22 01:41:30;;;;;;;;;;;14.30;99.90;;;;;;7323283;19;9268;-76
2023/09/22 01:43:59;;;;;;;;;;;14.30;99.90;;;;;;7324194;19;11203;-76
2023/09/22 01:46:28;;;;;;;;;;;14.40;99.90;;;;;;7325089;19;8945;-76
2023/09/22 01:49:17;;;;;;;;;;;14.40;99.90;;;;;;7323671;19;10063;-76
2023/09/22 01:51:46;;;;;;;;;;;14.40;99.90;;;;;;7325377;19;9412;-76
2023/09/22 01:54:17;;;;;;;;;;;14.40;99.90;;;;;;7324542;19;10159;-76
2023/09/22 01:56:46;;;;;;;;;;;14.40;99.90;;;;;;7323656;19;10604;-76
2023/09/22 01:59:15;;;;;;;;;;;14.50;99.90;;;;;;7323233;19;10194;-76
2023/09/22 02:02:04;;;;;;;;;;;14.50;99.90;;;;;;7321307;19;8983;-76
2023/09/22 02:04:53;;;;;;;;;;;14.60;99.90;;;;;;7320205;19;10605;-77
2023/09/22 02:07:22;;;;;;;;;;;14.60;99.90;;;;;;7322894;19;9470;-76
2023/09/22 02:09:54;;;;;;;;;;;14.60;99.90;;;;;;7324242;19;9218;-76
2023/09/22 02:12:23;;;;;;;;;;;14.70;99.90;;;;;;7322600;19;9308;-76
2023/09/22 02:14:52;;;;;;;;;;;14.70;99.90;;;;;;7323154;19;9310;-76
2023/09/22 02:17:41;;;;;;;;;;;14.70;99.90;;;;;;7321625;19;9445;-76
2023/09/22 02:20:18;;;;;;;;;;;14.70;99.90;;;;;;7322809;19;9309;-76
2023/09/22 02:23:01;;;;;;;;;;;14.80;99.90;;;;;;7324194;19;9180;-76
2023/09/22 02:25:32;;;;;;;;;;;14.80;99.90;;;;;;7322905;19;10757;-76
2023/09/22 02:28:22;;;;;;;;;;;14.90;99.90;;;;;;7321728;19;9367;-76
2023/09/22 02:31:12;;;;;;;;;;;14.80;99.90;;;;;;7320970;19;9528;-76
2023/09/22 02:33:41;;;;;;;;;;;14.80;99.90;;;;;;7318300;19;9241;-76
2023/09/22 02:36:10;;;;;;;;;;;14.70;99.90;;;;;;7321978;19;10355;-76
2023/09/22 02:38:39;;;;;;;;;;;14.80;99.90;;;;;;7322287;19;9189;-76
2023/09/22 02:41:11;;;;;;;;;;;14.70;99.90;;;;;;7323245;19;9354;-76
2023/09/22 02:43:40;;;;;;;;;;;14.70;99.90;;;;;;7322909;19;9371;-76
2023/09/22 02:46:09;;;;;;;;;;;14.70;99.90;;;;;;7320127;19;9218;-76
2023/09/22 02:48:38;;;;;;;;;;;14.70;99.90;;;;;;7322514;19;9303;-76
2023/09/22 02:51:26;;;;;;;;;;;14.70;99.90;;;;;;7321073;19;9499;-76
2023/09/22 02:54:15;;;;;;;;;;;14.70;99.90;;;;;;7320675;19;9507;-76
2023/09/22 02:56:47;;;;;;;;;;;14.60;99.90;;;;;;7323147;19;9234;-76
2023/09/22 02:59:17;;;;;;;;;;;14.60;99.90;;;;;;7322253;19;10519;-76
2023/09/22 03:02:06;;;;;;;;;;;14.60;99.90;;;;;;7319072;19;9645;-76
2023/09/22 03:04:56;;;;;;;;;;;14.60;99.90;;;;;;7319749;19;9408;-76
2023/09/22 03:07:45;;;;;;;;;;;14.60;99.90;;;;;;7320193;19;9484;-76
2023/09/22 03:10:34;;;;;;;;;;;14.70;99.90;;;;;;7320063;19;9165;-76
2023/09/22 03:13:06;;;;;;;;;;;14.70;99.90;;;;;;7321797;19;10270;-76
2023/09/22 03:15:55;;;;;;;;;;;14.80;99.90;;;;;;7320099;19;9233;-76
2023/09/22 03:18:24;;;;;;;;;;;14.80;99.90;;;;;;7321011;19;9253;-76
2023/09/22 03:20:54;;;;;;;;;;;14.80;99.90;;;;;;7321528;19;9093;-76
2023/09/22 03:23:24;;;;;;;;;;;14.80;99.90;;;;;;7321888;19;9595;-76
2023/09/22 03:25:53;;;;;;;;;;;14.90;99.90;;;;;;7321681;19;10692;-76
2023/09/22 03:28:44;;;;;;;;;;;14.90;99.90;;;;;;7319080;19;9258;-76
2023/09/22 03:31:33;;;;;;;;;;;14.90;99.90;;;;;;7321034;19;9314;-76
2023/09/22 03:34:02;;;;;;;;;;;14.80;99.90;;;;;;7318125;19;9237;-76
2023/09/22 03:36:52;;;;;;;;;;;14.90;99.90;;;;;;7319994;19;9296;-76
2023/09/22 03:39:41;;;;;;;;;;;14.90;99.90;;;;;;7318808;19;9429;-77
2023/09/22 03:42:13;;;;;;;;;;;15.10;99.90;;;;;;7320239;19;9679;-76
2023/09/22 03:45:06;;;;;;;;;;;15.10;99.90;;;;;;7319465;19;9336;-76
2023/09/22 03:47:36;;;;;;;;;;;15.10;99.90;;;;;;7319756;19;9423;-77
2023/09/22 03:50:06;;;;;;;;;;;15.10;99.90;;;;;;7318663;19;9320;-76
2023/09/22 03:52:36;;;;;;;;;;;15.00;99.90;;;;;;7320850;19;9257;-76
2023/09/22 03:55:05;;;;;;;;;;;15.00;99.90;;;;;;7319510;19;9274;-77
2023/09/22 03:57:34;;;;;;;;;;;15.00;99.90;;;;;;7321556;19;9186;-76
2023/09/22 04:00:16;;;;;;;;;;;15.00;99.90;;;;;;7319825;19;9460;-77
2023/09/22 04:02:46;;;;;;;;;;;15.00;99.90;;;;;;7315959;19;9457;-77
2023/09/22 04:05:15;;;;;;;;;;;15.00;99.90;;;;;;7320474;19;9280;-76
2023/09/22 04:07:44;;;;;;;;;;;15.10;99.90;;;;;;7321388;19;9470;-77
2023/09/22 04:10:14;;;;;;;;;;;15.00;99.90;;;;;;7322239;19;10167;-76
2023/09/22 04:12:43;;;;;;;;;;;15.00;99.90;;;;;;7321316;19;9303;-77
2023/09/22 04:15:15;;;;;;;;;;;15.10;99.90;;;;;;7322279;19;9135;-76
2023/09/22 04:17:45;;;;;;;;;;;15.00;99.90;;;;;;7322187;19;9245;-76
2023/09/22 04:20:17;;;;;;;;;;;15.10;99.90;;;;;;7322408;19;9144;-76
2023/09/22 04:22:47;;;;;;;;;;;15.10;99.90;;;;;;7322116;19;9520;-76
2023/09/22 04:25:19;;;;;;;;;;;15.00;99.90;;;;;;7324380;19;9261;-76
2023/09/22 04:28:11;;;;;;;;;;;15.10;99.90;;;;;;7319833;19;9218;-76
2023/09/22 04:31:02;;;;;;;;;;;15.10;99.90;;;;;;7319736;19;9192;-76
2023/09/22 04:33:51;;;;;;;;;;;15.00;99.90;;;;;;7312609;19;9316;-76
2023/09/22 04:36:41;;;;;;;;;;;15.00;99.90;;;;;;7317295;19;9505;-76
2023/09/22 04:39:10;;;;;;;;;;;15.10;99.90;;;;;;7319182;19;9348;-76
2023/09/22 04:41:40;;;;;;;;;;;15.10;99.90;;;;;;7318462;19;9431;-76
2023/09/22 04:44:30;;;;;;;;;;;15.10;99.90;;;;;;7317072;19;9345;-75
2023/09/22 04:47:01;;;;;;;;;;;15.20;99.90;;;;;;7318522;19;9242;-76
2023/09/22 04:49:50;;;;;;;;;;;15.30;99.90;;;;;;7318413;19;9227;-76
2023/09/22 04:52:19;;;;;;;;;;;15.40;99.90;;;;;;7319054;19;9279;-76
2023/09/22 04:54:48;;;;;;;;;;;15.40;99.90;;;;;;7318877;19;11504;-76
2023/09/22 04:57:17;;;;;;;;;;;15.40;99.90;;;;;;7318669;19;10628;-76
2023/09/22 05:00:13;;;;;;;;;;;15.40;99.90;;;;;;7316463;19;9170;-76
2023/09/22 05:02:46;;;;;;;;;;;15.30;99.90;;;;;;7317661;19;9138;-76
2023/09/22 05:05:35;;;;;;;;;;;15.30;99.90;;;;;;7317186;19;9083;-76
2023/09/22 05:08:05;;;;;;;;;;;15.30;99.90;;;;;;7323669;19;9199;-76
2023/09/22 05:10:34;;;;;;;;;;;15.40;99.90;;;;;;7318098;19;9292;-76
2023/09/22 05:13:23;;;;;;;;;;;15.30;99.90;;;;;;7319980;19;9570;-76
2023/09/22 05:16:18;;;;;;;;;;;15.50;99.90;;;;;;7316352;19;9902;-77
2023/09/22 05:18:50;;;;;;;;;;;15.50;99.90;;;;;;7320522;19;9488;-77
2023/09/22 05:21:19;;;;;;;;;;;15.60;99.90;;;;;;7321573;19;9215;-77
2023/09/22 05:24:09;;;;;;;;;;;15.50;99.90;;;;;;7315562;19;9610;-77
2023/09/22 05:26:38;;;;;;;;;;;15.50;99.90;;;;;;7314829;19;11169;-76
2023/09/22 05:29:27;;;;;;;;;;;15.50;99.90;;;;;;7317758;19;9574;-76
2023/09/22 05:31:56;;;;;;;;;;;15.50;99.90;;;;;;7315023;19;9129;-76
2023/09/22 05:34:28;;;;;;;;;;;15.40;99.90;;;;;;7318880;19;11000;-76
2023/09/22 05:37:16;;;;;;;;;;;15.40;99.90;;;;;;7320632;19;9380;-76
2023/09/22 05:40:12;;;;;;;;;;;15.50;99.90;;;;;;7324623;19;9202;-76
2023/09/22 05:43:01;;;;;;;;;;;15.50;99.90;;;;;;7320597;19;11056;-76
2023/09/22 05:45:55;;;;;;;;;;;15.50;99.90;;;;;;7318744;19;9187;-76
2023/09/22 05:48:46;;;;;;;;;;;15.50;99.90;;;;;;7316151;19;10185;-76
2023/09/22 05:51:37;;;;;;;;;;;15.60;99.90;;;;;;7321653;19;9501;-77
2023/09/22 05:54:07;;;;;;;;;;;15.60;99.90;;;;;;7321181;19;9567;-76
2023/09/22 05:56:36;;;;;;;;;;;15.50;99.90;;;;;;7322176;19;9344;-76
2023/09/22 05:59:26;;;;;;;;;;;15.40;99.90;;;;;;7315842;19;9249;-76
2023/09/22 06:01:57;;;;;;;;;;;15.20;99.90;;;;;;7323408;19;9680;-76
2023/09/22 06:04:46;;;;;;;;;;;15.20;99.90;;;;;;7320415;19;9043;-75
2023/09/22 06:07:17;;;;;;;;;;;15.10;99.90;;;;;;7321693;19;9356;-76
2023/09/22 06:10:09;;;;;;;;;;;15.00;99.90;;;;;;7312539;19;9362;-76
2023/09/22 06:12:39;;;;;;;;;;;14.90;99.90;;;;;;7321789;19;9058;-75
2023/09/22 06:15:12;;;;;;;;;;;14.90;99.90;;;;;;7324594;19;9135;-76
2023/09/22 06:17:41;;;;;;;;;;;14.90;99.90;;;;;;7324145;19;9496;-76
2023/09/22 06:20:13;;;;;;;;;;;14.90;99.90;;;;;;7318597;19;9632;-76
2023/09/22 06:22:47;;;;;;;;;;;14.90;99.90;;;;;;7321942;19;10181;-76
2023/09/22 06:25:17;;;;;;;;;;;14.90;99.90;;;;;;7324492;19;9202;-76
2023/09/22 06:28:07;;;;;;;;;;;14.90;99.90;;;;;;7322944;19;9329;-76
2023/09/22 06:30:36;;;;;;;;;;;15.00;99.90;;;;;;7324488;19;9628;-76
2023/09/22 06:33:25;;;;;;;;;;;15.00;99.90;;;;;;7321330;19;9326;-76
2023/09/22 06:36:15;;;;;;;;;;;14.80;99.90;;;;;;7322046;19;9484;-76
2023/09/22 06:38:46;;;;;;;;;;;14.80;99.90;;;;;;7323782;19;9229;-75
2023/09/22 06:41:36;;;;;;;;;;;14.80;99.90;;;;;;7323369;19;9264;-75
2023/09/22 06:44:06;;;;;;;;;;;14.90;99.90;;;;;;7322856;19;8968;-75
2023/09/22 06:46:35;;;;;;;;;;;15.00;99.90;;;;;;7324333;19;9366;-76
2023/09/22 06:49:24;;;;;;;;;;;15.10;99.90;;;;;;7322091;19;9625;-76
2023/09/22 06:51:54;;;;;;;;;;;15.20;99.90;;;;;;7321500;19;9247;-75
2023/09/22 06:54:26;;;;;;;;;;;15.20;99.90;;;;;;7323999;19;10372;-75
2023/09/22 06:56:56;;;;;;;;;;;15.20;99.90;;;;;;7323306;19;11450;-75
2023/09/22 06:59:25;;;;;;;;;;;15.20;99.90;;;;;;7322603;19;9269;-76
2023/09/22 07:01:54;;;;;;;;;;;15.20;99.90;;;;;;7323975;19;9537;-76
2023/09/22 07:04:23;;;;;;;;;;;15.10;99.90;;;;;;7323735;19;9316;-75
2023/09/22 07:06:52;;;;;;;;;;;15.10;99.90;;;;;;7322984;19;9000;-76
2023/09/22 07:09:21;;;;;;;;;;;15.10;99.90;;;;;;7319811;19;9471;-76
2023/09/22 07:11:53;;;;;;;;;;;15.20;99.90;;;;;;7321052;19;9307;-75
2023/09/22 07:14:22;;;;;;;;;;;15.20;99.90;;;;;;7319537;19;10107;-76
2023/09/22 07:17:11;;;;;;;;;;;15.10;99.90;;;;;;7321017;19;9530;-76
2023/09/22 07:19:43;;;;;;;;;;;15.20;99.90;;;;;;7322937;19;8945;-75
2023/09/22 07:22:33;;;;;;;;;;;15.20;99.90;;;;;;7317480;19;9166;-76
2023/09/22 07:25:03;;;;;;;;;;;15.30;99.90;;;;;;7319663;19;10441;-76
2023/09/22 07:27:56;;;;;;;;;;;15.30;99.90;;;;;;7321112;19;9340;-75
2023/09/22 07:30:24;;;;;;;;;;;15.50;99.90;;;;;;7322573;19;9164;-75
2023/09/22 07:32:54;;;;;;;;;;;15.50;99.90;;;;;;7322241;19;9166;-76
2023/09/22 07:35:24;;;;;;;;;;;15.50;99.90;;;;;;7321069;19;10509;-76
2023/09/22 07:37:53;;;;;;;;;;;15.40;99.90;;;;;;7317019;19;8985;-76
2023/09/22 07:40:22;;;;;;;;;;;15.50;99.90;;;;;;7309384;19;9120;-75
2023/09/22 07:42:51;;;;;;;;;;;15.50;99.90;;;;;;7312187;19;9444;-76
2023/09/22 07:45:23;;;;;;;;;;;15.60;99.90;;;;;;7314428;19;10201;-76
2023/09/22 07:47:52;;;;;;;;;;;15.60;99.90;;;;;;7313086;19;9187;-76
2023/09/22 07:50:21;;;;;;;;;;;15.60;99.90;;;;;;7307002;19;11110;-76
2023/09/22 07:53:10;;;;;;;;;;;15.60;99.90;;;;;;7314739;19;11440;-76
2023/09/22 07:55:41;;;;;;;;;;;15.50;99.90;;;;;;7312516;19;9262;-75
2023/09/22 07:58:10;;;;;;;;;;;15.60;99.90;;;;;;7311592;19;9282;-75
2023/09/22 08:01:06;;;;;;;;;;;15.60;99.90;;;;;;7307799;19;9155;-76
2023/09/22 08:03:36;;;;;;;;;;;15.70;99.90;;;;;;7311246;19;9444;-76
2023/09/22 08:06:07;;;;;;;;;;;15.80;99.90;;;;;;7313515;19;9261;-77
2023/09/22 08:08:37;;;;;;;;;;;15.80;99.90;;;;;;7316057;19;9274;-76
2023/09/22 08:11:07;;;;;;;;;;;15.90;99.90;;;;;;7315548;19;10503;-75
2023/09/22 08:13:39;;;;;;;;;;;15.90;99.90;;;;;;7321066;19;9577;-76
2023/09/22 08:16:11;;;;;;;;;;;15.90;99.90;;;;;;7317811;19;8944;-75
2023/09/22 08:18:40;;;;;;;;;;;15.80;99.90;;;;;;7315826;19;9249;-76
2023/09/22 08:21:10;;;;;;;;;;;15.80;99.90;;;;;;7308894;19;10322;-79
2023/09/22 08:23:40;;;;;;;;;;;15.90;99.90;;;;;;7308270;19;9321;-77
2023/09/22 08:26:09;;;;;;;;;;;16.00;99.90;;;;;;7303704;19;9743;-77
2023/09/22 08:28:41;;;;;;;;;;;16.20;99.90;;;;;;7310924;19;9862;-87
2023/09/22 08:31:13;;;;;;;;;;;16.20;99.90;;;;;;7307003;19;9516;-82
2023/09/22 08:33:42;;;;;;;;;;;16.00;99.90;;;;;;7321271;19;9229;-84
2023/09/22 08:36:11;;;;;;;;;;;16.10;99.90;;;;;;7322514;19;8944;-74
2023/09/22 08:39:00;;;;;;;;;;;15.90;99.90;;;;;;7324293;19;9277;-73
2023/09/22 08:41:31;;;;;;;;;;;16.10;99.90;;;;;;7324079;19;9263;-74
2023/09/22 08:44:01;;;;;;;;;;;16.40;99.90;;;;;;7326209;19;9253;-74
2023/09/22 08:46:35;;;;;;;;;;;16.40;99.90;;;;;;7323901;19;9459;-74
2023/09/22 08:49:04;;;;;;;;;;;16.40;99.90;;;;;;7323026;19;9250;-73
2023/09/22 08:51:34;;;;;;;;;;;16.40;99.90;;;;;;7326704;19;9274;-73
2023/09/22 08:54:03;;;;;;;;;;;16.30;99.90;;;;;;7325543;19;9309;-73
2023/09/22 08:56:34;;;;;;;;;;;16.20;99.90;;;;;;7323644;19;9325;-72
2023/09/22 08:59:03;;;;;;;;;;;16.20;99.90;;;;;;7324559;19;9226;-72
2023/09/22 09:01:34;;;;;;;;;;;16.30;99.90;;;;;;7324316;19;9299;-73
2023/09/22 09:04:32;;;;;;;;;;;16.30;99.90;;;;;;7323023;19;9132;-73
2023/09/22 09:07:01;;;;;;;;;;;16.40;99.90;;;;;;7324822;19;9591;-75
2023/09/22 09:09:43;;;;;;;;;;;16.50;99.90;;;;;;7324085;19;9265;-71
2023/09/22 09:12:13;;;;;;;;;;;16.50;99.90;;;;;;7325585;19;9287;-75
2023/09/22 09:14:42;;;;;;;;;;;16.70;99.90;;;;;;7325797;19;9550;-74
2023/09/22 09:17:23;;;;;;;;;;;16.50;99.90;;;;;;7324018;19;9504;-72
2023/09/22 09:19:56;;;;;;;;;;;16.70;99.90;;;;;;7325059;19;9225;-73
2023/09/22 09:22:35;;;;;;;;;;;16.60;99.90;;;;;;7324387;19;9396;-72
2023/09/22 09:25:06;;;;;;;;;;;16.70;99.90;;;;;;7324822;19;9271;-72
2023/09/22 09:28:03;;;;;;;;;;;16.70;99.90;;;;;;7324067;19;9559;-71
2023/09/22 09:30:34;;;;;;;;;;;16.60;99.90;;;;;;7324433;19;9264;-73
2023/09/22 09:33:13;;;;;;;;;;;16.50;99.90;;;;;;7320986;19;9254;-73
2023/09/22 09:36:15;;;;;;;;;;;16.50;99.90;;;;;;7322973;19;9491;-75
2023/09/22 09:38:46;;;;;;;;;;;16.50;99.90;;;;;;7327339;19;9514;-72
2023/09/22 09:41:15;;;;;;;;;;;16.50;99.90;;;;;;7322840;19;8948;-75
2023/09/22 09:43:47;;;;;;;;;;;16.40;99.90;;;;;;7325517;19;9234;-73
2023/09/22 09:46:19;;;;;;;;;;;16.40;99.90;;;;;;7323236;19;9253;-73
2023/09/22 09:48:55;;;;;;;;;;;16.40;99.90;;;;;;7327159;19;9248;-72
2023/09/22 09:51:26;;;;;;;;;;;16.50;99.90;;;;;;7325466;19;9477;-75
2023/09/22 09:54:06;;;;;;;;;;;16.70;99.90;;;;;;7322734;19;9522;-72
2023/09/22 09:56:41;;;;;;;;;;;16.90;99.90;;;;;;7324148;19;9587;-72
2023/09/22 09:59:12;;;;;;;;;;;17.30;99.90;;;;;;7324148;19;9461;-72
2023/09/22 10:01:42;;;;;;;;;;;17.50;99.90;;;;;;7323662;19;9455;-74
2023/09/22 10:04:19;;;;;;;;;;;17.70;99.90;;;;;;7319340;19;9183;-75
2023/09/22 10:06:53;;;;;;;;;;;17.70;99.90;;;;;;7319837;19;8944;-73
2023/09/22 10:09:22;;;;;;;;;;;17.60;99.90;;;;;;7323907;19;9373;-72
2023/09/22 10:11:52;;;;;;;;;;;17.40;99.90;;;;;;7323717;19;9610;-74
2023/09/22 10:14:46;;;;;;;;;;;17.20;99.90;;;;;;7323445;19;9031;-74
2023/09/22 10:17:25;;;;;;;;;;;17.20;99.90;;;;;;7324097;19;9329;-75
2023/09/22 10:19:58;;;;;;;;;;;17.00;99.90;;;;;;7323604;19;9733;-75
2023/09/22 10:22:28;;;;;;;;;;;16.90;99.90;;;;;;7324118;19;9254;-76
2023/09/22 10:25:25;;;;;;;;;;;17.00;99.90;;;;;;7324455;19;9317;-76
2023/09/22 10:27:58;;;;;;;;;;;17.10;99.90;;;;;;7322554;19;9299;-76
2023/09/22 10:31:02;;;;;;;;;;;17.20;99.90;;;;;;7322883;19;9349;-78
2023/09/22 10:33:32;;;;;;;;;;;17.20;99.90;;;;;;7319891;19;9467;-80
2023/09/22 10:36:04;;;;;;;;;;;17.20;99.90;;;;;;7322373;19;9266;-78
2023/09/22 10:38:58;;;;;;;;;;;17.40;99.90;;;;;;7318920;19;9951;-72
2023/09/22 10:41:27;;;;;;;;;;;17.80;99.90;;;;;;7323504;19;11253;-73
2023/09/22 10:44:02;;;;;;;;;;;18.10;99.90;;;;;;7321427;19;9235;-75
2023/09/22 10:46:31;;;;;;;;;;;18.30;99.90;;;;;;7322472;19;9219;-75
2023/09/22 10:48:59;;;;;;;;;;;18.50;99.90;;;;;;7321606;19;9330;-75
2023/09/22 10:51:46;;;;;;;;;;;18.50;99.90;;;;;;7323619;19;9240;-75
2023/09/22 10:54:16;;;;;;;;;;;18.60;99.90;;;;;;7321769;19;9280;-77
2023/09/22 10:56:45;;;;;;;;;;;18.70;99.90;;;;;;7319947;19;9202;-77
2023/09/22 10:59:16;;;;;;;;;;;18.70;99.90;;;;;;7322355;19;9158;-73
2023/09/22 11:01:48;;;;;;;;;;;18.80;99.90;;;;;;7320932;19;9591;-76
2023/09/22 11:04:17;;;;;;;;;;;18.90;99.90;;;;;;7319633;19;9317;-76
2023/09/22 11:06:49;;;;;;;;;;;19.00;99.90;;;;;;7320602;19;9270;-78
2023/09/22 11:09:18;;;;;;;;;;;19.10;99.90;;;;;;7322904;19;9247;-78
2023/09/22 11:11:48;;;;;;;;;;;19.20;99.90;;;;;;7321843;19;8944;-78
2023/09/22 11:14:22;;;;;;;;;;;19.40;99.90;;;;;;7322331;19;10064;-79
2023/09/22 11:16:51;;;;;;;;;;;19.40;99.90;;;;;;7322620;19;9239;-77
2023/09/22 11:19:21;;;;;;;;;;;19.20;99.90;;;;;;7321432;19;9479;-77
2023/09/22 11:21:52;;;;;;;;;;;19.10;99.90;;;;;;7322206;19;9456;-73
2023/09/22 11:24:21;;;;;;;;;;;19.10;99.90;;;;;;7320541;19;9452;-76
2023/09/22 11:26:50;;;;;;;;;;;19.20;99.90;;;;;;7319793;19;9187;-75
2023/09/22 11:29:23;;;;;;;;;;;19.20;99.90;;;;;;7321885;19;9273;-74
2023/09/22 11:31:56;;;;;;;;;;;19.10;99.90;;;;;;7318314;19;9145;-74
2023/09/22 11:34:27;;;;;;;;;;;18.80;99.90;;;;;;7317317;19;9418;-74
2023/09/22 11:37:03;;;;;;;;;;;18.70;99.90;;;;;;7318049;19;9551;-74
2023/09/22 11:39:34;;;;;;;;;;;18.40;99.90;;;;;;7321686;19;9472;-74
2023/09/22 11:42:04;;;;;;;;;;;18.50;99.90;;;;;;7320052;19;9301;-74
2023/09/22 11:44:33;;;;;;;;;;;18.70;99.90;;;;;;7321858;19;9469;-75
2023/09/22 11:47:03;;;;;;;;;;;18.90;99.90;;;;;;7321083;19;9479;-77
2023/09/22 11:49:39;;;;;;;;;;;19.00;99.90;;;;;;7321282;19;9580;-78
2023/09/22 11:52:12;;;;;;;;;;;19.30;99.90;;;;;;7321228;19;9211;-79
2023/09/22 11:54:41;;;;;;;;;;;19.40;99.90;;;;;;7322009;19;9357;-81
2023/09/22 11:57:10;;;;;;;;;;;19.60;99.90;;;;;;7320696;19;9225;-81
2023/09/22 11:59:40;;;;;;;;;;;19.60;99.90;;;;;;7321722;19;9274;-80
2023/09/22 12:02:09;;;;;;;;;;;19.80;99.90;;;;;;7319969;19;9187;-76
2023/09/22 12:04:38;;;;;;;;;;;19.80;99.90;;;;;;7317648;19;9479;-78
2023/09/22 12:07:07;;;;;;;;;;;19.70;99.90;;;;;;7322378;19;9467;-76
2023/09/22 12:09:40;;;;;;;;;;;19.60;99.90;;;;;;7334251;19;8995;-76
2023/09/22 12:12:29;;;;;;;;;;;19.50;99.90;;;;;;7332455;19;9980;-78
2023/09/22 12:14:58;;;;;;;;;;;19.40;98.40;;;;;;7331175;19;9226;-80
2023/09/22 12:17:27;;;;;;;;;;;19.40;99.90;;;;;;7332828;19;9280;-75
2023/09/22 12:19:55;;;;;;;;;;;19.40;99.90;;;;;;7330446;19;9458;-76
2023/09/22 12:22:44;;;;;;;;;;;19.40;99.00;;;;;;7332748;19;9500;-75
2023/09/22 12:25:18;;;;;;;;;;;19.50;99.90;;;;;;7334976;19;9214;-77
2023/09/22 12:27:48;;;;;;;;;;;19.50;99.90;;;;;;7333616;19;9471;-77
2023/09/22 12:30:17;;;;;;;;;;;19.50;99.90;;;;;;7333083;19;9226;-76
2023/09/22 12:32:46;;;;;;;;;;;19.20;99.90;;;;;;7331370;19;9320;-75
2023/09/22 12:35:16;;;;;;;;;;;19.10;99.90;;;;;;7330726;19;9229;-76
2023/09/22 12:37:46;;;;;;;;;;;19.00;99.90;;;;;;7331592;19;10344;-76
2023/09/22 12:40:18;;;;;;;;;;;19.20;99.90;;;;;;7330037;19;9154;-74
2023/09/22 12:42:47;;;;;;;;;;;19.20;99.90;;;;;;7333139;19;9245;-75
2023/09/22 12:45:16;;;;;;;;;;;19.00;99.90;;;;;;7332686;19;9257;-74
2023/09/22 12:47:45;;;;;;;;;;;19.00;99.90;;;;;;7332920;19;9700;-77
2023/09/22 12:50:14;;;;;;;;;;;18.90;99.90;;;;;;7333775;19;9279;-77
2023/09/22 12:52:43;;;;;;;;;;;18.80;99.90;;;;;;7333548;19;10155;-77
2023/09/22 12:55:12;;;;;;;;;;;18.80;99.90;;;;;;7332758;19;9244;-78
2023/09/22 12:58:04;;;;;;;;;;;18.70;99.90;;;;;;7332073;19;9486;-77
2023/09/22 13:00:42;;;;;;;;;;;18.90;99.90;;;;;;7332563;19;9225;-77
2023/09/22 13:03:11;;;;;;;;;;;19.00;99.90;;;;;;7329959;19;10900;-77
2023/09/22 13:05:45;;;;;;;;;;;18.90;99.90;;;;;;7328598;19;9208;-76
2023/09/22 13:08:14;;;;;;;;;;;18.80;99.90;;;;;;7331223;19;9238;-76
2023/09/22 13:10:43;;;;;;;;;;;18.80;99.90;;;;;;7330365;19;9266;-77
2023/09/22 13:13:15;;;;;;;;;;;18.80;99.90;;;;;;7329778;19;9186;-75
2023/09/22 13:15:46;;;;;;;;;;;18.60;99.90;;;;;;7331739;19;9278;-78
2023/09/22 13:18:16;;;;;;;;;;;18.50;99.90;;;;;;7332481;19;9294;-77
2023/09/22 13:20:45;;;;;;;;;;;18.40;99.90;;;;;;7322840;19;9547;-77
2023/09/22 13:23:16;;;;;;;;;;;18.50;99.90;;;;;;7324308;19;9318;-77
2023/09/22 13:25:48;;;;;;;;;;;18.50;99.90;;;;;;7325907;19;9317;-77
2023/09/22 13:28:20;;;;;;;;;;;18.30;99.90;;;;;;7324691;19;9435;-77
2023/09/22 13:30:55;;;;;;;;;;;18.40;99.90;;;;;;7324971;19;9350;-77
2023/09/22 13:33:25;;;;;;;;;;;18.30;99.90;;;;;;7320681;19;9169;-77
2023/09/22 13:35:56;;;;;;;;;;;18.30;99.90;;;;;;7322884;19;9487;-79
2023/09/22 13:38:27;;;;;;;;;;;18.20;99.90;;;;;;7322671;19;8944;-77
2023/09/22 13:40:56;;;;;;;;;;;18.00;99.90;;;;;;7324321;19;9289;-74
2023/09/22 13:43:28;;;;;;;;;;;18.00;99.90;;;;;;7322883;19;9281;-73
2023/09/22 13:45:57;;;;;;;;;;;18.00;99.90;;;;;;7323442;19;9210;-73
2023/09/22 13:48:26;;;;;;;;;;;17.90;99.90;;;;;;7325012;19;9226;-73
2023/09/22 13:50:55;;;;;;;;;;;17.90;99.90;;;;;;7324641;19;9488;-82
2023/09/22 13:53:24;;;;;;;;;;;18.00;99.90;;;;;;7323324;19;8944;-77
2023/09/22 13:55:53;;;;;;;;;;;17.90;99.90;;;;;;7318987;19;8944;-82
2023/09/22 13:58:22;;;;;;;;;;;18.00;99.90;;;;;;7323626;19;9234;-77
2023/09/22 14:00:54;;;;;;;;;;;17.90;99.90;;;;;;7323390;19;9175;-77
2023/09/22 14:03:23;;;;;;;;;;;18.10;99.90;;;;;;7317035;19;9159;-89
2023/09/22 14:05:52;;;;;;;;;;;18.10;99.90;;;;;;7318291;19;9135;-80
2023/09/22 14:08:22;;;;;;;;;;;18.20;99.90;;;;;;7320612;19;9265;-81
2023/09/22 14:10:51;;;;;;;;;;;18.20;99.90;;;;;;7319488;19;9106;-82
2023/09/22 14:13:20;;;;;;;;;;;18.10;99.90;;;;;;7322906;19;9223;-82
2023/09/22 14:15:49;;;;;;;;;;;18.10;99.90;;;;;;7324620;19;9238;-82
2023/09/22 14:18:21;;;;;;;;;;;18.10;99.90;;;;;;7324305;19;9340;-82
2023/09/22 14:20:51;;;;;;;;;;;17.80;99.90;;;;;;7321860;19;9944;-82
2023/09/22 14:23:20;;;;;;;;;;;17.80;99.90;;;;;;7324565;19;9544;-82
2023/09/22 14:25:50;;;;;;;;;;;17.70;99.90;;;;;;7323369;19;9509;-82
2023/09/22 14:28:19;;;;;;;;;;;17.70;99.90;;;;;;7324002;19;9289;-82
2023/09/22 14:30:48;;;;;;;;;;;17.60;99.90;;;;;;7323363;19;9368;-81
2023/09/22 14:33:17;;;;;;;;;;;17.60;99.90;;;;;;7321149;19;9229;-82
2023/09/22 14:35:49;;;;;;;;;;;17.60;99.90;;;;;;7323590;19;10735;-82
2023/09/22 14:38:18;;;;;;;;;;;17.50;99.90;;;;;;7323957;19;9306;-81
2023/09/22 14:40:47;;;;;;;;;;;17.60;99.90;;;;;;7323842;19;9669;-82
2023/09/22 14:43:16;;;;;;;;;;;17.50;99.90;;;;;;7325015;19;9293;-82
2023/09/22 14:45:45;;;;;;;;;;;17.60;99.90;;;;;;7322879;19;11152;-81
2023/09/22 14:48:15;;;;;;;;;;;17.60;99.90;;;;;;7325466;19;9498;-81
2023/09/22 14:50:44;;;;;;;;;;;17.50;99.90;;;;;;7324716;19;9127;-81
2023/09/22 14:53:15;;;;;;;;;;;17.50;99.90;;;;;;7325617;19;9198;-81
2023/09/22 14:55:44;;;;;;;;;;;17.50;99.90;;;;;;7325227;19;9349;-81
2023/09/22 14:58:13;;;;;;;;;;;17.40;99.90;;;;;;7325131;19;10344;-81
2023/09/22 15:00:43;;;;;;;;;;;17.40;99.90;;;;;;7323924;19;9360;-81
2023/09/22 15:03:11;;;;;;;;;;;17.40;99.90;;;;;;7323057;19;10695;-81
2023/09/22 15:05:41;;;;;;;;;;;17.40;99.90;;;;;;7325216;19;9326;-81
2023/09/22 15:08:10;;;;;;;;;;;17.40;99.90;;;;;;7324926;19;9460;-81
2023/09/22 15:10:42;;;;;;;;;;;17.30;99.90;;;;;;7323485;19;9238;-81
2023/09/22 15:13:15;;;;;;;;;;;17.40;99.90;;;;;;7323333;19;9525;-81